createdAt,value
2018-05-23T01:02:15.052Z,1365.03
2018-05-23T01:04:47.854Z,1243.37
2018-05-23T01:07:20.716Z,1135.53
2018-05-23T01:09:53.475Z,1114.03
2018-05-23T01:12:26.170Z,1022.27
2018-05-23T01:14:59.292Z,935.10
2018-05-23T01:17:31.575Z,1001.60
2018-05-23T01:20:03.609Z,1058.17
2018-05-23T01:22:36.155Z,1045.83
2018-05-23T01:25:08.531Z,1009.87
2018-05-23T01:27:40.537Z,437.83
2018-05-23T01:30:12.814Z,174.03
2018-05-23T01:32:44.857Z,164.33
2018-05-23T01:35:16.692Z,150.90
2018-05-23T01:37:49.211Z,171.00
2018-05-23T01:40:22.660Z,203.90
2018-05-23T01:42:55.151Z,141.30
2018-05-23T01:45:29.973Z,200.57
2018-05-23T01:48:03.471Z,214.07
2018-05-23T01:50:36.054Z,224.27
2018-05-23T01:53:09.160Z,259.33
2018-05-23T01:55:44.854Z,298.80
2018-05-23T01:58:17.978Z,318.53
2018-05-23T02:00:50.812Z,357.27
2018-05-23T02:03:23.051Z,475.37
2018-05-23T02:05:56.658Z,719.00
2018-05-23T02:08:30.814Z,835.43
2018-05-23T02:11:05.498Z,883.30
2018-05-23T02:13:37.475Z,1003.87
2018-05-23T02:16:10.232Z,1052.30
2018-05-23T02:18:42.313Z,1030.30
2018-05-23T02:21:14.916Z,1021.90
2018-05-23T02:23:48.913Z,1040.47
2018-05-23T02:26:23.650Z,1038.13
2018-05-23T02:28:56.634Z,980.73
2018-05-23T02:31:29.574Z,1012.37
2018-05-23T02:34:01.919Z,1021.73
2018-05-23T02:36:35.952Z,1001.47
2018-05-23T02:39:10.153Z,1009.70
2018-05-23T02:41:42.753Z,815.67
2018-05-23T02:44:14.796Z,616.67
2018-05-23T02:46:46.955Z,781.23
2018-05-23T02:49:19.153Z,371.57
2018-05-23T02:51:51.998Z,324.77
2018-05-23T02:54:24.112Z,544.97
2018-05-23T02:56:56.171Z,391.50
2018-05-23T02:59:28.873Z,438.67
2018-05-23T03:02:02.200Z,421.07
2018-05-23T03:04:34.211Z,438.53
2018-05-23T03:07:07.193Z,616.20
2018-05-23T03:09:40.671Z,737.00
2018-05-23T03:12:14.648Z,618.37
2018-05-23T03:14:48.195Z,671.17
2018-05-23T03:17:20.969Z,613.67
2018-05-23T03:19:53.453Z,723.37
2018-05-23T03:22:29.252Z,1016.53
2018-05-23T03:25:02.292Z,861.73
2018-05-23T03:27:35.471Z,915.63
2018-05-23T03:30:10.015Z,824.00
2018-05-23T03:32:42.735Z,854.83
2018-05-23T03:35:18.174Z,829.93
2018-05-23T03:37:52.217Z,786.93
2018-05-23T03:40:24.577Z,682.23
2018-05-23T03:42:56.735Z,737.27
2018-05-23T03:45:31.702Z,591.43
2018-05-23T03:48:04.260Z,710.60
2018-05-23T03:50:36.399Z,690.50
2018-05-23T03:53:09.132Z,638.63
2018-05-23T03:55:43.020Z,621.83
2018-05-23T03:58:17.417Z,647.43
2018-05-23T04:04:06.293Z,643.30
2018-05-23T04:06:55.688Z,580.77
2018-05-23T04:09:28.276Z,518.97
2018-05-23T04:12:04.301Z,413.87
2018-05-23T04:14:41.455Z,427.03
2018-05-23T04:17:14.456Z,401.10
2018-05-23T04:19:46.778Z,417.10
2018-05-23T04:22:19.953Z,411.87
2018-05-23T04:24:53.262Z,378.90
2018-05-23T04:27:26.157Z,365.17
2018-05-23T04:30:01.930Z,352.60
2018-05-23T04:32:35.793Z,370.10
2018-05-23T04:35:08.141Z,390.57
2018-05-23T04:37:41.438Z,395.23
2018-05-23T04:40:15.712Z,369.77
2018-05-23T04:42:48.630Z,377.77
2018-05-23T04:45:21.117Z,388.00
2018-05-23T04:47:55.873Z,412.53
2018-05-23T04:50:29.038Z,397.80
2018-05-23T04:53:02.637Z,373.53
2018-05-23T04:55:34.894Z,359.17
2018-05-23T04:58:08.595Z,349.03
2018-05-23T05:00:41.336Z,367.17
2018-05-23T05:03:14.358Z,346.37
2018-05-23T05:05:49.903Z,425.13
2018-05-23T05:08:25.176Z,353.57
2018-05-23T05:10:57.677Z,355.47
2018-05-23T05:13:33.354Z,374.07
2018-05-23T05:16:08.990Z,296.00
2018-05-23T05:18:43.655Z,334.63
2018-05-23T05:21:18.130Z,326.33
2018-05-23T05:23:50.412Z,398.43
2018-05-23T05:26:28.001Z,403.80
2018-05-23T05:29:02.692Z,291.83
2018-05-23T05:31:36.729Z,430.30
2018-05-23T05:34:10.295Z,333.17
2018-05-23T05:36:44.454Z,391.37
2018-05-23T05:39:19.873Z,334.70
2018-05-23T05:41:55.372Z,295.60
2018-05-23T05:44:30.297Z,340.87
2018-05-23T05:47:02.943Z,321.33
2018-05-23T05:49:37.042Z,308.43
2018-05-23T05:52:11.396Z,287.77
2018-05-23T05:54:46.998Z,555.70
2018-05-23T05:57:20.572Z,638.00
2018-05-23T05:59:55.155Z,1046.27
2018-05-23T06:02:28.072Z,1129.33
2018-05-23T06:05:02.734Z,1327.10
2018-05-23T06:07:37.594Z,1367.73
2018-05-23T06:10:13.115Z,1388.10
2018-05-23T06:12:48.697Z,1371.00
2018-05-23T06:15:20.853Z,1402.70
2018-05-23T06:17:55.454Z,1356.57
2018-05-23T06:20:28.680Z,1384.23
2018-05-23T06:23:02.582Z,1372.27
2018-05-23T06:25:39.672Z,1336.50
2018-05-23T06:28:12.317Z,1126.87
2018-05-23T06:30:44.776Z,1242.70
2018-05-23T06:33:18.533Z,1241.70
2018-05-23T06:35:55.002Z,1297.97
2018-05-23T06:38:28.676Z,1319.77
2018-05-23T06:41:01.914Z,1333.10
2018-05-23T06:43:34.338Z,1328.87
2018-05-23T06:46:09.653Z,1310.03
2018-05-23T06:48:43.497Z,1360.23
2018-05-23T06:51:17.463Z,1343.83
2018-05-23T06:53:50.798Z,1343.17
2018-05-23T06:56:24.836Z,1212.03
2018-05-23T06:58:58.418Z,744.80
2018-05-23T07:01:33.734Z,860.83
2018-05-23T07:04:07.738Z,1999.90
2018-05-23T07:06:42.777Z,527.70
2018-05-23T07:09:17.418Z,260.33
2018-05-23T07:11:51.757Z,64.57
2018-05-23T07:14:24.600Z,64.57
2018-05-23T07:16:59.495Z,75.30
2018-05-23T07:19:35.856Z,80.57
2018-05-23T07:22:08.112Z,112.47
2018-05-23T07:24:43.540Z,164.93
2018-05-23T07:27:16.734Z,210.57
2018-05-23T07:29:54.551Z,131.53
2018-05-23T07:32:27.177Z,118.43
2018-05-23T07:34:59.391Z,85.60
2018-05-23T07:37:32.213Z,98.53
2018-05-23T07:40:07.428Z,103.00
2018-05-23T07:42:42.712Z,105.77
2018-05-23T07:45:17.941Z,114.23
2018-05-23T07:47:51.716Z,63.93
2018-05-23T07:50:27.218Z,81.50
2018-05-23T07:53:01.257Z,70.33
2018-05-23T07:55:35.216Z,86.70
2018-05-23T07:58:10.692Z,112.77
2018-05-23T08:00:43.974Z,164.77
2018-05-23T08:03:19.735Z,400.27
2018-05-23T08:05:53.357Z,255.03
2018-05-23T08:08:26.938Z,275.13
2018-05-23T08:11:01.783Z,265.43
2018-05-23T08:13:35.994Z,215.90
2018-05-23T08:16:09.359Z,240.60
2018-05-23T08:18:43.542Z,208.33
2018-05-23T08:21:16.474Z,177.33
2018-05-23T08:23:51.638Z,249.47
2018-05-23T08:26:25.318Z,541.67
2018-05-23T08:29:01.598Z,336.30
2018-05-23T08:31:34.933Z,252.67
2018-05-23T08:34:09.238Z,218.77
2018-05-23T08:36:45.716Z,203.23
2018-05-23T08:39:18.935Z,144.03
2018-05-23T08:41:53.436Z,110.73
2018-05-23T08:44:26.174Z,105.30
2018-05-23T08:47:04.300Z,192.83
2018-05-23T08:49:39.293Z,111.63
2018-05-23T08:52:12.333Z,99.53
2018-05-23T08:54:46.314Z,92.53
2018-05-23T08:57:26.415Z,115.10
2018-05-23T09:00:00.130Z,83.67
2018-05-23T09:02:35.619Z,81.47
2018-05-23T09:05:11.982Z,60.20
2018-05-23T09:07:45.834Z,166.10
2018-05-23T09:10:18.894Z,162.37
2018-05-23T09:12:51.823Z,113.83
2018-05-23T09:15:25.893Z,135.83
2018-05-23T09:17:58.917Z,139.33
2018-05-23T09:20:34.877Z,159.07
2018-05-23T09:23:10.456Z,129.13
2018-05-23T09:25:44.857Z,156.40
2018-05-23T09:28:25.392Z,123.87
2018-05-23T09:30:58.812Z,125.77
2018-05-23T09:33:31.512Z,118.97
2018-05-23T09:36:05.172Z,105.63
2018-05-23T09:38:42.174Z,122.70
2018-05-23T09:41:17.514Z,109.93
2018-05-23T09:43:53.110Z,110.30
2018-05-23T09:46:29.571Z,96.83
2018-05-23T09:49:06.613Z,129.23
2018-05-23T09:51:41.078Z,154.17
2018-05-23T09:54:14.453Z,140.20
2018-05-23T09:56:47.470Z,123.40
2018-05-23T09:59:21.038Z,137.07
2018-05-23T10:01:54.951Z,131.70
2018-05-23T10:04:26.796Z,109.33
2018-05-23T10:06:59.108Z,101.13
2018-05-23T10:09:31.932Z,116.87
2018-05-23T10:12:05.017Z,112.03
2018-05-23T10:14:39.497Z,126.07
2018-05-23T10:17:13.416Z,143.33
2018-05-23T10:19:47.336Z,115.93
2018-05-23T10:22:20.275Z,115.25
2018-05-23T10:24:58.280Z,148.13
2018-05-23T10:27:39.830Z,120.18
2018-05-23T10:30:13.693Z,110.40
2018-05-23T10:32:46.059Z,125.45
2018-05-23T10:35:24.896Z,100.15
2018-05-23T10:37:59.135Z,119.23
2018-05-23T10:40:36.375Z,152.53
2018-05-23T10:43:10.659Z,184.43
2018-05-23T10:45:42.955Z,123.97
2018-05-23T10:48:17.553Z,129.97
2018-05-23T10:50:55.512Z,240.73
2018-05-23T10:53:33.395Z,147.70
2018-05-23T10:56:06.755Z,236.43
2018-05-23T10:58:39.791Z,249.43
2018-05-23T11:01:14.335Z,209.20
2018-05-23T11:03:50.560Z,213.50
2018-05-23T11:06:24.236Z,152.50
2018-05-23T11:08:59.530Z,163.37
2018-05-23T11:11:31.693Z,152.45
2018-05-23T11:14:07.132Z,80.20
2018-05-23T11:16:41.237Z,115.90
2018-05-23T11:19:17.412Z,96.50
2018-05-23T11:21:50.351Z,109.30
2018-05-23T11:24:24.398Z,109.30
2018-05-23T11:26:56.537Z,154.20
2018-05-23T11:29:29.350Z,111.27
2018-05-23T11:32:02.415Z,168.53
2018-05-23T11:34:34.856Z,136.35
2018-05-23T11:37:08.415Z,112.63
2018-05-23T11:39:40.780Z,118.30
2018-05-23T11:42:16.155Z,169.63
2018-05-23T11:44:50.427Z,148.90
2018-05-23T11:47:23.497Z,125.85
2018-05-23T11:49:58.672Z,141.35
2018-05-23T11:52:30.403Z,141.20
2018-05-23T11:55:04.372Z,101.63
2018-05-23T11:57:40.598Z,85.75
2018-05-23T12:00:17.695Z,89.37
2018-05-23T12:02:51.369Z,112.90
2018-05-23T12:05:25.317Z,100.95
2018-05-23T12:08:01.174Z,98.35
2018-05-23T12:10:33.522Z,69.18
2018-05-23T12:13:06.713Z,55.58
2018-05-23T12:15:39.895Z,56.17
2018-05-23T12:18:12.600Z,47.20
2018-05-23T12:20:44.435Z,46.70
2018-05-23T12:23:22.232Z,43.47
2018-05-23T12:25:57.053Z,51.97
2018-05-23T12:28:32.576Z,58.05
2018-05-23T12:31:07.511Z,53.60
2018-05-23T12:33:39.836Z,51.28
2018-05-23T12:36:15.896Z,54.28
2018-05-23T12:38:50.531Z,63.40
2018-05-23T12:41:23.712Z,61.00
2018-05-23T12:43:56.740Z,48.15
2018-05-23T12:46:30.575Z,44.05
2018-05-23T12:49:10.261Z,42.50
2018-05-23T12:51:43.777Z,49.78
2018-05-23T12:54:18.036Z,62.70
2018-05-23T12:56:58.774Z,68.57
2018-05-23T12:59:31.836Z,57.58
2018-05-23T13:53:08.532Z,897.23
2018-05-23T13:55:45.995Z,1603.57
2018-05-23T13:58:32.434Z,1264.23
2018-05-23T14:01:11.158Z,881.00
2018-05-23T14:03:53.456Z,1168.33
2018-05-23T14:06:38.892Z,1248.10
2018-05-23T14:12:30.140Z,1283.57
2018-05-23T14:15:09.495Z,1315.70
2018-05-23T14:17:47.361Z,1324.17
2018-05-23T14:20:38.838Z,1326.13
2018-05-23T14:23:16.413Z,1271.47
2018-05-23T14:25:55.058Z,1131.07
2018-05-23T14:28:32.544Z,1039.67
2018-05-23T14:34:05.655Z,901.77
2018-05-23T14:36:52.039Z,836.80
2018-05-23T14:39:46.024Z,821.60
2018-05-23T14:42:18.836Z,809.67
2018-05-23T14:44:52.391Z,806.73
2018-05-23T14:47:26.135Z,784.73
2018-05-23T14:49:58.891Z,929.43
2018-05-23T14:52:36.774Z,822.07
2018-05-23T14:55:11.711Z,925.77
2018-05-23T14:57:44.103Z,918.77
2018-05-23T15:00:17.921Z,793.70
2018-05-23T15:02:53.532Z,856.73
2018-05-23T15:05:26.456Z,811.50
2018-05-23T15:08:03.894Z,855.27
2018-05-23T15:10:37.457Z,990.50
2018-05-23T15:13:11.518Z,924.47
2018-05-23T15:15:45.825Z,892.30
2018-05-23T15:18:18.631Z,914.07
2018-05-23T15:20:56.409Z,793.23
2018-05-23T15:23:29.753Z,729.10
2018-05-23T15:26:05.183Z,705.90
2018-05-23T15:28:37.132Z,783.33
2018-05-23T15:31:16.079Z,872.63
2018-05-23T15:33:47.532Z,799.00
2018-05-23T15:36:31.378Z,740.23
2018-05-23T15:39:04.780Z,888.00
2018-05-23T15:41:41.474Z,766.70
2018-05-23T15:44:17.996Z,694.50
2018-05-23T15:46:52.258Z,736.03
2018-05-23T15:49:26.615Z,730.57
2018-05-23T15:52:00.075Z,721.53
2018-05-23T15:54:34.534Z,473.87
2018-05-23T15:57:10.452Z,448.27
2018-05-23T15:59:46.535Z,838.13
2018-05-23T16:02:21.174Z,867.20
2018-05-23T16:04:56.636Z,936.63
2018-05-23T16:07:30.131Z,587.97
2018-05-23T16:10:02.713Z,632.30
2018-05-23T16:12:35.656Z,821.00
2018-05-23T16:15:10.561Z,887.47
2018-05-23T16:17:50.114Z,992.73
2018-05-23T16:47:19.933Z,877.40
2018-05-23T16:49:53.697Z,741.70
2018-05-23T16:52:26.557Z,729.27
2018-05-23T16:55:00.731Z,929.67
2018-05-23T16:57:32.477Z,668.63
2018-05-23T17:00:06.662Z,744.67
2018-05-23T17:02:40.632Z,818.23
2018-05-23T17:05:13.494Z,651.83
2018-05-23T17:07:47.114Z,674.10
2018-05-23T17:10:20.950Z,809.80
2018-05-23T17:12:53.692Z,662.30
2018-05-23T17:15:27.498Z,1030.47
2018-05-23T17:18:00.955Z,678.83
2018-05-23T17:20:33.779Z,969.10
2018-05-23T17:23:07.375Z,957.77
2018-05-23T17:25:42.779Z,626.13
2018-05-23T17:28:18.193Z,667.63
2018-05-23T17:30:51.489Z,977.00
2018-05-23T17:33:24.587Z,897.67
2018-05-23T17:35:58.198Z,832.50
2018-05-23T17:38:31.856Z,676.20
2018-05-23T17:41:04.632Z,749.17
2018-05-23T17:43:39.153Z,699.80
2018-05-23T17:46:11.853Z,674.17
2018-05-23T17:48:46.812Z,642.57
2018-05-23T17:51:19.271Z,519.50
2018-05-23T17:53:52.537Z,471.80
2018-05-23T17:56:26.340Z,490.77
2018-05-23T17:58:59.173Z,728.70
2018-05-23T18:01:32.438Z,491.43
2018-05-23T18:04:04.655Z,407.07
2018-05-23T18:06:43.674Z,1215.37
2018-05-23T18:09:20.012Z,843.80
2018-05-23T18:11:53.023Z,550.37
2018-05-23T18:14:27.415Z,491.53
2018-05-23T18:17:02.411Z,560.80
2018-05-23T18:19:36.096Z,417.07
2018-05-23T18:22:09.699Z,436.37
2018-05-23T18:24:42.111Z,526.13
2018-05-23T18:27:16.056Z,416.50
2018-05-23T18:29:54.876Z,403.23
2018-05-23T18:32:28.739Z,405.30
2018-05-23T18:35:01.056Z,470.87
2018-05-23T18:37:33.735Z,470.43
2018-05-23T18:40:08.553Z,519.23
2018-05-23T18:42:41.870Z,571.67
2018-05-23T18:45:17.500Z,649.93
2018-05-23T18:47:50.680Z,626.60
2018-05-23T18:50:23.536Z,594.33
2018-05-23T18:52:56.596Z,508.40
2018-05-23T18:55:29.173Z,487.60
2018-05-23T18:58:01.738Z,349.50
2018-05-23T19:00:33.914Z,414.90
2018-05-23T20:17:43.271Z,605.83
2018-05-23T20:20:16.632Z,616.10
2018-05-23T20:22:50.396Z,655.90
2018-05-23T20:25:22.716Z,650.33
2018-05-23T20:27:55.212Z,658.27
2018-05-23T20:30:28.575Z,707.20
2018-05-23T20:33:01.595Z,741.90
2018-05-23T20:35:34.149Z,737.57
2018-05-23T20:38:06.579Z,663.97
2018-05-23T20:40:40.077Z,662.40
2018-05-23T20:43:12.537Z,635.97
2018-05-23T20:45:47.474Z,636.13
2018-05-23T20:48:22.690Z,632.63
2018-05-23T20:50:55.996Z,644.13
2018-05-23T20:53:28.160Z,634.13
2018-05-23T22:10:36.666Z,694.97
2018-05-23T22:35:11.323Z,681.17
2018-05-23T22:37:43.441Z,662.97
2018-05-23T22:40:16.123Z,570.23
2018-05-23T22:42:49.059Z,700.73
2018-05-23T22:45:22.341Z,666.30
2018-05-23T22:47:55.397Z,671.03
2018-05-23T22:50:28.385Z,645.83
2018-05-23T22:53:01.101Z,645.37
2018-05-23T22:55:34.402Z,660.63
2018-05-23T22:58:07.987Z,696.03
2018-05-23T23:00:40.843Z,635.53
2018-05-23T23:03:13.721Z,704.93
2018-05-23T23:05:46.961Z,664.57
2018-05-23T23:08:20.297Z,657.20
2018-05-23T23:10:54.283Z,620.33
2018-05-23T23:13:26.444Z,517.47
2018-05-23T23:15:58.763Z,625.03
2018-05-23T23:18:32.860Z,633.50
2018-05-23T23:21:05.601Z,559.30
2018-05-23T23:23:37.819Z,692.17
2018-05-23T23:26:10.862Z,699.37
2018-05-23T23:28:44.900Z,684.63
2018-05-23T23:31:17.522Z,654.70
2018-05-23T23:33:50.863Z,587.83
2018-05-23T23:36:23.761Z,652.40
2018-05-23T23:38:55.908Z,649.77
2018-05-23T23:41:28.969Z,547.50
2018-05-23T23:44:02.062Z,591.30
2018-05-23T23:46:34.963Z,603.03
2018-05-23T23:49:08.484Z,586.27
2018-05-23T23:51:40.867Z,581.00
2018-05-23T23:54:13.139Z,595.50
2018-05-23T23:56:45.464Z,587.37
2018-05-23T23:59:17.484Z,590.07
